createdAt,value
2022-10-09T00:01:22.180Z,63.78
2022-10-09T00:03:49.918Z,63.46
2022-10-09T00:06:19.351Z,63.46
2022-10-09T00:08:46.268Z,63.62
2022-10-09T00:11:21.126Z,63.54
2022-10-09T00:13:48.445Z,63.68
2022-10-09T00:16:16.053Z,63.70
2022-10-09T00:18:43.230Z,63.57
2022-10-09T00:21:20.699Z,63.53
2022-10-09T00:23:48.098Z,63.74
2022-10-09T00:26:15.071Z,63.36
2022-10-09T00:28:42.012Z,63.30
2022-10-09T00:31:09.599Z,63.60
2022-10-09T00:33:36.764Z,63.24
2022-10-09T00:36:14.297Z,63.48
2022-10-09T00:38:41.322Z,63.55
2022-10-09T00:41:08.260Z,63.49
2022-10-09T00:43:46.757Z,63.41
2022-10-09T00:46:20.783Z,63.48
2022-10-09T00:48:48.683Z,63.38
2022-10-09T00:51:15.591Z,63.19
2022-10-09T00:53:42.516Z,62.97
2022-10-09T00:56:09.415Z,63.40
2022-10-09T00:58:36.353Z,63.51
2022-10-09T01:01:03.306Z,63.35
2022-10-09T01:03:30.308Z,63.14
2022-10-09T01:06:09.686Z,63.39
2022-10-09T01:09:31.607Z,63.17
2022-10-09T01:12:36.372Z,63.21
2022-10-09T01:15:33.090Z,63.12
2022-10-09T01:18:21.126Z,63.28
2022-10-09T01:21:12.588Z,63.54
2022-10-09T01:24:14.719Z,63.14
2022-10-09T01:26:57.142Z,63.04
2022-10-09T01:29:24.663Z,63.06
2022-10-09T01:31:51.540Z,63.02
2022-10-09T01:34:19.454Z,63.25
2022-10-09T01:36:46.392Z,63.06
2022-10-09T01:39:16.553Z,62.83
2022-10-09T01:41:43.897Z,63.35
2022-10-09T01:44:22.617Z,62.92
2022-10-09T01:46:49.592Z,63.37
2022-10-09T01:49:34.160Z,63.18
2022-10-09T01:52:06.802Z,62.94
2022-10-09T01:54:39.320Z,63.09
2022-10-09T01:57:07.113Z,62.91
2022-10-09T01:59:36.796Z,62.96
2022-10-09T02:02:03.781Z,63.22
2022-10-09T02:04:30.813Z,63.25
2022-10-09T02:06:57.759Z,63.31
2022-10-09T02:09:24.763Z,63.11
2022-10-09T02:11:55.817Z,63.09
2022-10-09T02:14:22.812Z,62.94
2022-10-09T02:16:57.192Z,62.79
2022-10-09T02:19:27.192Z,62.83
2022-10-09T02:22:06.090Z,63.07
2022-10-09T02:24:33.034Z,62.83
2022-10-09T02:27:00.085Z,62.89
2022-10-09T02:29:27.102Z,62.82
2022-10-09T02:31:54.329Z,63.06
2022-10-09T02:34:21.276Z,63.10
2022-10-09T02:36:48.466Z,62.80
2022-10-09T02:39:15.469Z,62.91
2022-10-09T02:41:42.387Z,62.97
2022-10-09T02:44:09.410Z,62.78
2022-10-09T02:46:38.155Z,62.75
2022-10-09T02:49:05.947Z,63.00
2022-10-09T02:51:32.990Z,62.68
2022-10-09T02:53:59.976Z,62.87
2022-10-09T02:56:26.966Z,62.81
2022-10-09T02:58:53.919Z,62.69
2022-10-09T03:01:20.938Z,62.82
2022-10-09T03:03:47.881Z,62.90
2022-10-09T03:06:16.615Z,63.10
2022-10-09T03:08:45.089Z,62.76
2022-10-09T03:11:12.534Z,62.74
2022-10-09T03:13:40.008Z,63.12
2022-10-09T03:16:11.104Z,63.04
2022-10-09T03:18:38.210Z,63.02
2022-10-09T03:21:08.918Z,62.86
2022-10-09T03:23:35.996Z,62.98
2022-10-09T03:26:05.126Z,63.26
2022-10-09T03:28:32.277Z,63.08
2022-10-09T03:30:59.315Z,63.14
2022-10-09T03:33:26.299Z,63.03
2022-10-09T03:35:53.237Z,62.98
2022-10-09T03:38:20.177Z,62.98
2022-10-09T03:40:47.080Z,62.81
2022-10-09T03:43:14.017Z,63.19
2022-10-09T03:45:41.677Z,63.08
2022-10-09T03:48:09.665Z,63.08
2022-10-09T03:50:37.938Z,62.95
2022-10-09T03:53:05.716Z,63.33
2022-10-09T03:55:32.869Z,63.13
2022-10-09T03:57:59.886Z,62.83
2022-10-09T04:00:26.930Z,62.74
2022-10-09T04:02:53.988Z,62.96
2022-10-09T04:05:20.998Z,62.80
2022-10-09T04:07:47.956Z,62.74
2022-10-09T04:10:14.924Z,62.99
2022-10-09T04:12:41.956Z,63.21
2022-10-09T04:15:09.618Z,63.01
2022-10-09T04:17:36.709Z,62.87
2022-10-09T04:20:03.982Z,63.05
2022-10-09T04:22:30.947Z,63.15
2022-10-09T04:24:57.872Z,63.05
2022-10-09T04:27:24.848Z,62.94
2022-10-09T04:29:51.782Z,63.02
2022-10-09T04:32:18.698Z,62.71
2022-10-09T04:34:45.652Z,62.95
2022-10-09T04:37:12.613Z,63.09
2022-10-09T04:39:39.538Z,63.00
2022-10-09T04:42:06.593Z,62.88
2022-10-09T04:44:33.569Z,62.92
2022-10-09T04:47:00.481Z,62.89
2022-10-09T04:49:27.440Z,62.95
2022-10-09T04:51:54.391Z,63.07
2022-10-09T04:54:21.371Z,63.06
2022-10-09T04:56:48.343Z,63.06
2022-10-09T04:59:15.244Z,63.21
2022-10-09T05:01:42.271Z,63.22
2022-10-09T05:04:09.259Z,63.31
2022-10-09T05:06:36.200Z,63.26
2022-10-09T05:09:03.124Z,63.12
2022-10-09T05:11:30.066Z,63.34
2022-10-09T05:13:57.754Z,63.33
2022-10-09T05:16:29.003Z,63.42
2022-10-09T05:18:57.170Z,63.34
2022-10-09T05:21:24.659Z,63.14
2022-10-09T05:23:53.025Z,63.50
2022-10-09T05:26:20.868Z,63.21
2022-10-09T05:28:48.062Z,62.91
2022-10-09T05:31:23.399Z,63.31
2022-10-09T05:33:50.570Z,63.13
2022-10-09T05:36:17.586Z,63.22
2022-10-09T05:38:44.794Z,63.36
2022-10-09T05:41:13.423Z,63.18
2022-10-09T05:43:42.225Z,63.06
2022-10-09T05:46:20.019Z,63.52
2022-10-09T05:48:51.953Z,63.06
2022-10-09T05:51:20.527Z,63.31
2022-10-09T05:53:47.776Z,63.56
2022-10-09T05:56:25.888Z,63.56
2022-10-09T05:59:02.903Z,63.33
2022-10-09T06:01:37.194Z,63.39
2022-10-09T06:04:04.272Z,63.40
2022-10-09T06:06:32.656Z,63.30
2022-10-09T06:08:59.692Z,63.50
2022-10-09T06:11:31.947Z,63.26
2022-10-09T06:14:03.186Z,63.46
2022-10-09T06:16:31.697Z,63.13
2022-10-09T06:18:58.888Z,63.23
2022-10-09T06:21:26.869Z,63.48
2022-10-09T06:23:55.593Z,63.19
2022-10-09T06:26:22.850Z,63.47
2022-10-09T06:28:49.991Z,63.34
2022-10-09T06:31:18.704Z,63.37
2022-10-09T06:33:46.144Z,63.25
2022-10-09T06:36:14.832Z,63.71
2022-10-09T06:38:42.163Z,63.31
2022-10-09T06:41:13.388Z,63.10
2022-10-09T06:43:40.657Z,63.67
2022-10-09T06:46:09.623Z,63.31
2022-10-09T06:48:37.236Z,63.82
2022-10-09T06:51:11.660Z,63.59
2022-10-09T06:53:40.171Z,64.05
2022-10-09T06:56:08.797Z,63.96
2022-10-09T06:58:35.843Z,64.19
2022-10-09T07:01:13.310Z,63.99
2022-10-09T07:03:41.312Z,63.88
2022-10-09T07:06:12.821Z,63.79
2022-10-09T07:08:40.516Z,64.02
2022-10-09T07:11:14.207Z,64.04
2022-10-09T07:13:42.126Z,63.88
2022-10-09T07:16:09.364Z,63.81
2022-10-09T07:18:36.416Z,64.21
2022-10-09T07:21:07.480Z,64.29
2022-10-09T07:23:34.979Z,64.24
2022-10-09T07:26:02.190Z,64.21
2022-10-09T07:28:29.829Z,64.20
2022-10-09T07:30:57.051Z,64.02
2022-10-09T07:33:24.131Z,64.20
2022-10-09T07:35:58.183Z,64.57
2022-10-09T07:38:25.218Z,64.39
2022-10-09T07:40:52.787Z,64.45
2022-10-09T07:43:19.961Z,64.58
2022-10-09T07:45:47.212Z,64.71
2022-10-09T07:48:14.241Z,64.28
2022-10-09T07:50:41.114Z,64.78
2022-10-09T07:53:09.041Z,64.02
2022-10-09T07:55:36.663Z,64.24
2022-10-09T07:58:03.607Z,64.31
2022-10-09T08:00:30.526Z,64.07
2022-10-09T08:02:57.553Z,63.83
2022-10-09T08:05:24.521Z,64.35
2022-10-09T08:07:51.766Z,63.99
2022-10-09T08:10:18.713Z,64.23
2022-10-09T08:12:45.833Z,64.25
2022-10-09T08:15:13.492Z,64.41
2022-10-09T08:17:40.474Z,64.31
2022-10-09T08:20:07.952Z,64.11
2022-10-09T08:22:34.890Z,64.25
2022-10-09T08:25:01.821Z,64.16
2022-10-09T08:27:28.794Z,64.12
2022-10-09T08:29:55.721Z,64.13
2022-10-09T08:32:22.632Z,63.26
2022-10-09T08:34:49.655Z,63.33
2022-10-09T08:37:16.882Z,63.01
2022-10-09T08:39:43.847Z,62.92
2022-10-09T08:42:23.230Z,62.58
2022-10-09T08:44:50.649Z,62.87
2022-10-09T08:47:22.164Z,63.02
2022-10-09T08:49:50.966Z,62.65
2022-10-09T08:52:24.067Z,62.87
2022-10-09T08:54:51.024Z,60.38
2022-10-09T08:57:18.035Z,61.44
2022-10-09T08:59:45.059Z,61.97
2022-10-09T09:02:36.355Z,62.30
2022-10-09T09:05:19.901Z,62.41
2022-10-09T09:07:58.879Z,62.04
2022-10-09T09:10:43.244Z,62.09
2022-10-09T09:13:39.224Z,62.09
2022-10-09T09:16:14.773Z,62.25
2022-10-09T09:19:03.078Z,62.18
2022-10-09T09:21:37.953Z,62.46
2022-10-09T09:24:10.540Z,62.68
2022-10-09T09:26:37.504Z,62.80
2022-10-09T09:29:04.452Z,62.94
2022-10-09T09:31:36.826Z,62.76
2022-10-09T09:34:34.965Z,63.23
2022-10-09T09:37:01.924Z,63.31
2022-10-09T09:42:20.139Z,63.53
2022-10-09T09:44:49.848Z,63.66
2022-10-09T09:47:25.870Z,63.51
2022-10-09T09:49:58.013Z,63.61
2022-10-09T09:52:25.270Z,63.46
2022-10-09T09:54:52.288Z,63.80
2022-10-09T09:57:28.221Z,63.69
2022-10-09T09:59:55.119Z,63.65
2022-10-09T10:02:23.390Z,63.79
2022-10-09T10:04:54.593Z,63.93
2022-10-09T10:07:38.039Z,63.87
2022-10-09T10:10:19.728Z,63.73
2022-10-09T10:12:58.728Z,63.92
2022-10-09T10:15:32.695Z,63.78
2022-10-09T10:18:00.766Z,64.09
2022-10-09T10:20:28.422Z,64.01
2022-10-09T10:22:56.100Z,64.03
2022-10-09T10:25:26.537Z,63.83
2022-10-09T10:27:58.235Z,63.75
2022-10-09T10:30:25.181Z,64.16
2022-10-09T10:33:01.129Z,63.87
2022-10-09T10:35:32.708Z,62.24
2022-10-09T10:38:00.032Z,61.71
2022-10-09T10:40:32.272Z,61.92
2022-10-09T10:43:02.086Z,61.83
2022-10-09T10:45:35.439Z,62.15
2022-10-09T10:48:03.114Z,61.90
2022-10-09T10:50:36.554Z,62.20
2022-10-09T10:53:37.965Z,62.23
2022-10-09T10:56:12.927Z,62.21
2022-10-09T10:58:59.812Z,62.37
2022-10-09T11:01:52.472Z,62.64
2022-10-09T11:04:33.857Z,62.63
2022-10-09T11:07:13.842Z,63.40
2022-10-09T11:10:14.115Z,62.94
2022-10-09T11:12:48.544Z,62.67
2022-10-09T11:15:34.442Z,62.40
2022-10-09T11:18:06.955Z,62.15
2022-10-09T11:20:55.597Z,61.22
2022-10-09T11:23:37.367Z,61.06
2022-10-09T11:26:04.197Z,60.57
2022-10-09T11:28:36.353Z,60.69
2022-10-09T11:31:19.962Z,60.53
2022-10-09T11:33:51.576Z,60.65
2022-10-09T11:36:33.382Z,61.08
2022-10-09T11:39:02.374Z,61.08
2022-10-09T11:41:29.397Z,60.94
2022-10-09T11:44:27.565Z,61.15
2022-10-09T11:47:01.931Z,61.24
2022-10-09T11:49:36.403Z,56.33
2022-10-09T11:52:27.559Z,58.63
2022-10-09T11:54:54.461Z,59.23
2022-10-09T11:57:30.658Z,59.68
2022-10-09T12:00:08.078Z,59.45
2022-10-09T12:02:35.139Z,59.34
2022-10-09T12:05:02.098Z,59.51
2022-10-09T12:07:36.465Z,60.25
2022-10-09T12:10:07.030Z,60.48
2022-10-09T12:12:34.043Z,60.92
2022-10-09T12:15:11.403Z,60.72
2022-10-09T12:17:45.531Z,61.29
2022-10-09T12:20:23.670Z,61.23
2022-10-09T12:23:21.640Z,61.23
2022-10-09T12:25:44.882Z,60.67
2022-10-09T12:28:36.878Z,61.45
2022-10-09T12:31:05.679Z,61.12
2022-10-09T12:33:40.849Z,61.21
2022-10-09T12:36:13.922Z,61.48
2022-10-09T12:38:41.128Z,61.73
2022-10-09T12:41:20.026Z,61.86
2022-10-09T12:43:47.478Z,61.52
2022-10-09T12:46:14.482Z,61.94
2022-10-09T12:48:43.210Z,61.74
2022-10-09T12:51:17.479Z,62.04
2022-10-09T12:53:51.717Z,61.49
2022-10-09T12:56:38.864Z,61.20
2022-10-09T12:59:06.760Z,61.00
2022-10-09T13:01:34.554Z,61.03
2022-10-09T13:04:04.440Z,61.07
2022-10-09T13:06:43.128Z,61.07
2022-10-09T13:09:22.244Z,61.22
2022-10-09T13:12:12.301Z,61.34
2022-10-09T13:14:44.200Z,61.64
2022-10-09T13:17:40.950Z,61.75
2022-10-09T13:20:16.819Z,62.14
2022-10-09T13:23:00.293Z,61.70
2022-10-09T13:25:28.691Z,62.15
2022-10-09T13:27:55.612Z,61.95
2022-10-09T13:30:22.664Z,61.94
2022-10-09T13:32:50.118Z,61.83
2022-10-09T13:35:17.557Z,62.31
2022-10-09T13:37:44.473Z,61.62
2022-10-09T13:40:14.673Z,61.95
2022-10-09T13:42:41.665Z,60.97
2022-10-09T13:45:10.146Z,60.36
2022-10-09T13:47:37.129Z,59.95
2022-10-09T13:50:04.364Z,59.26
2022-10-09T13:52:31.325Z,60.14
2022-10-09T13:54:58.271Z,60.04
2022-10-09T13:57:25.203Z,60.16
2022-10-09T13:59:52.158Z,60.18
2022-10-09T14:02:19.294Z,60.00
2022-10-09T14:04:46.220Z,60.12
2022-10-09T14:07:13.237Z,60.08
2022-10-09T14:09:40.166Z,60.42
2022-10-09T14:12:07.120Z,60.47
2022-10-09T14:14:34.173Z,59.85
2022-10-09T14:17:01.090Z,60.11
2022-10-09T14:19:28.392Z,59.92
2022-10-09T14:21:55.915Z,60.16
2022-10-09T14:24:22.913Z,59.83
2022-10-09T14:26:51.813Z,60.20
2022-10-09T14:29:18.938Z,60.45
2022-10-09T14:31:46.071Z,60.02
2022-10-09T14:34:13.977Z,59.47
2022-10-09T14:36:42.251Z,59.37
2022-10-09T14:39:09.170Z,59.45
2022-10-09T14:41:37.926Z,59.69
2022-10-09T14:44:05.201Z,59.76
2022-10-09T14:46:37.797Z,59.39
2022-10-09T14:49:07.628Z,59.73
2022-10-09T14:51:37.043Z,59.79
2022-10-09T14:54:04.727Z,59.51
2022-10-09T14:56:31.649Z,59.91
2022-10-09T14:59:00.466Z,59.87
2022-10-09T15:01:27.918Z,60.01
2022-10-09T15:03:54.912Z,59.79
2022-10-09T15:06:24.400Z,60.06
2022-10-09T15:08:52.631Z,59.66
2022-10-09T15:11:19.866Z,59.82
2022-10-09T15:13:46.909Z,60.10
2022-10-09T15:16:17.605Z,59.89
2022-10-09T15:18:44.782Z,59.59
2022-10-09T15:21:16.538Z,59.70
2022-10-09T15:23:43.624Z,60.03
2022-10-09T15:26:10.704Z,59.86
2022-10-09T15:28:38.067Z,60.12
2022-10-09T15:31:06.187Z,60.39
2022-10-09T15:33:33.384Z,60.33
2022-10-09T15:36:00.380Z,60.58
2022-10-09T15:38:27.348Z,60.68
2022-10-09T15:40:55.607Z,60.69
2022-10-09T15:43:24.622Z,60.45
2022-10-09T15:45:54.273Z,60.38
2022-10-09T15:48:22.747Z,60.44
2022-10-09T15:50:52.285Z,60.69
2022-10-09T15:53:20.376Z,60.49
2022-10-09T15:55:48.764Z,60.16
2022-10-09T15:58:16.059Z,60.07
2022-10-09T16:00:44.510Z,60.08
2022-10-09T16:03:11.504Z,59.91
2022-10-09T16:05:43.455Z,60.34
2022-10-09T16:08:11.485Z,59.92
2022-10-09T16:10:48.668Z,59.98
2022-10-09T16:13:16.200Z,60.22
2022-10-09T16:15:43.727Z,60.20
2022-10-09T16:18:10.707Z,59.94
2022-10-09T16:20:38.052Z,59.97
2022-10-09T16:23:05.062Z,59.75
2022-10-09T16:25:32.056Z,60.11
2022-10-09T16:27:59.092Z,59.66
2022-10-09T16:30:26.299Z,59.70
2022-10-09T16:32:53.381Z,59.76
2022-10-09T16:35:21.849Z,59.76
2022-10-09T16:37:48.766Z,60.03
2022-10-09T16:40:15.874Z,59.74
2022-10-09T16:42:42.755Z,60.01
2022-10-09T16:45:10.410Z,59.74
2022-10-09T16:47:38.199Z,59.74
2022-10-09T16:50:05.547Z,59.89
2022-10-09T16:52:32.657Z,59.98
2022-10-09T16:55:00.546Z,59.96
2022-10-09T16:57:27.717Z,59.95
2022-10-09T16:59:54.644Z,59.87
2022-10-09T17:02:21.573Z,59.90
2022-10-09T17:04:48.588Z,59.59
2022-10-09T17:07:15.497Z,60.04
2022-10-09T17:09:43.254Z,60.06
2022-10-09T17:12:11.245Z,60.32
2022-10-09T17:14:38.245Z,60.06
2022-10-09T17:17:05.602Z,60.13
2022-10-09T17:19:32.998Z,60.00
2022-10-09T17:22:00.954Z,60.02
2022-10-09T17:24:27.995Z,60.11
2022-10-09T17:26:55.197Z,60.21
2022-10-09T17:29:22.286Z,59.96
2022-10-09T17:31:49.659Z,60.02
2022-10-09T17:34:16.696Z,60.19
2022-10-09T17:36:44.149Z,60.13
2022-10-09T17:39:15.751Z,59.99
2022-10-09T17:41:45.912Z,60.01
2022-10-09T17:44:13.369Z,60.12
2022-10-09T17:46:40.366Z,60.11
2022-10-09T17:49:07.411Z,60.19
2022-10-09T17:51:39.787Z,60.00
2022-10-09T17:54:11.805Z,59.91
2022-10-09T17:56:39.354Z,60.00
2022-10-09T17:59:06.390Z,60.17
2022-10-09T18:01:33.822Z,60.15
2022-10-09T18:04:00.813Z,59.92
2022-10-09T18:06:27.891Z,60.16
2022-10-09T18:08:55.763Z,60.17
2022-10-09T18:11:23.176Z,60.18
2022-10-09T18:13:50.136Z,60.04
2022-10-09T18:16:19.207Z,60.39
2022-10-09T18:18:46.290Z,60.25
2022-10-09T18:21:17.101Z,60.15
2022-10-09T18:23:47.235Z,60.11
2022-10-09T18:26:16.309Z,60.10
2022-10-09T18:28:46.040Z,60.27
2022-10-09T18:31:17.646Z,60.29
2022-10-09T18:33:46.319Z,60.12
2022-10-09T18:36:19.703Z,60.22
2022-10-09T18:38:47.947Z,60.04
2022-10-09T18:41:14.949Z,60.07
2022-10-09T18:43:41.889Z,60.17
2022-10-09T18:46:32.498Z,59.98
2022-10-09T18:48:59.759Z,60.06
2022-10-09T18:51:26.842Z,59.97
2022-10-09T18:54:02.013Z,60.00
2022-10-09T18:56:30.418Z,60.13
2022-10-09T18:58:57.687Z,60.01
2022-10-09T19:01:24.693Z,60.18
2022-10-09T19:03:51.836Z,60.28
2022-10-09T19:06:19.374Z,60.20
2022-10-09T19:08:46.531Z,60.04
2022-10-09T19:11:15.717Z,60.01
2022-10-09T19:13:43.256Z,60.16
2022-10-09T19:16:10.663Z,59.88
2022-10-09T19:18:38.186Z,60.18
2022-10-09T19:21:07.123Z,60.11
2022-10-09T19:23:34.577Z,60.18
2022-10-09T19:26:01.899Z,59.86
2022-10-09T19:28:33.436Z,60.21
2022-10-09T19:31:02.869Z,60.18
2022-10-09T19:33:30.365Z,60.04
2022-10-09T19:35:57.776Z,60.05
2022-10-09T19:38:25.251Z,60.22
2022-10-09T19:40:52.514Z,60.05
2022-10-09T19:43:19.847Z,59.92
2022-10-09T19:45:49.438Z,59.90
2022-10-09T19:48:18.104Z,60.08
2022-10-09T19:50:45.579Z,59.85
2022-10-09T19:53:12.753Z,59.92
2022-10-09T19:55:39.751Z,59.86
2022-10-09T19:58:07.018Z,60.02
2022-10-09T20:00:33.953Z,59.85
2022-10-09T20:03:00.945Z,60.00
2022-10-09T20:05:27.891Z,59.91
2022-10-09T20:07:54.831Z,59.73
2022-10-09T20:10:21.786Z,59.96
2022-10-09T20:12:48.949Z,59.96
2022-10-09T20:15:16.163Z,59.95
2022-10-09T20:17:43.153Z,59.99
2022-10-09T20:20:10.500Z,59.90
2022-10-09T20:22:37.478Z,59.90
2022-10-09T20:25:05.091Z,59.61
2022-10-09T20:27:31.995Z,59.63
2022-10-09T20:29:58.954Z,59.67
2022-10-09T20:32:25.962Z,59.75
2022-10-09T20:34:52.888Z,59.92
2022-10-09T20:37:19.832Z,59.51
2022-10-09T20:39:46.820Z,59.78
2022-10-09T20:42:13.806Z,59.68
2022-10-09T20:44:40.746Z,59.32
2022-10-09T20:47:07.946Z,59.41
2022-10-09T20:49:34.909Z,59.67
2022-10-09T20:52:03.444Z,59.89
2022-10-09T20:54:30.707Z,59.46
2022-10-09T20:56:59.909Z,59.57
2022-10-09T20:59:27.043Z,59.45
2022-10-09T21:01:54.008Z,59.45
2022-10-09T21:04:20.919Z,59.85
2022-10-09T21:06:47.808Z,59.44
2022-10-09T21:09:14.812Z,59.45
2022-10-09T21:11:42.086Z,59.78
2022-10-09T21:14:09.805Z,59.48
2022-10-09T21:16:36.728Z,59.73
2022-10-09T21:19:04.437Z,59.54
2022-10-09T21:21:31.516Z,59.59
2022-10-09T21:23:59.075Z,59.75
2022-10-09T21:26:26.124Z,59.66
2022-10-09T21:28:56.901Z,59.82
2022-10-09T21:31:28.651Z,59.40
2022-10-09T21:33:55.842Z,59.57
2022-10-09T21:36:31.833Z,59.80
2022-10-09T21:38:58.858Z,59.73
2022-10-09T21:41:26.321Z,59.64
2022-10-09T21:43:53.282Z,59.52
2022-10-09T21:46:20.194Z,59.42
2022-10-09T21:48:47.219Z,59.63
2022-10-09T21:51:14.137Z,59.12
2022-10-09T21:53:41.061Z,59.73
2022-10-09T21:56:10.025Z,59.58
2022-10-09T21:58:37.735Z,59.57
2022-10-09T22:01:04.833Z,59.19
2022-10-09T22:03:33.356Z,59.76
2022-10-09T22:06:00.361Z,59.68
2022-10-09T22:08:27.299Z,59.72
2022-10-09T22:10:54.239Z,59.70
2022-10-09T22:13:21.922Z,59.78
2022-10-09T22:15:51.106Z,59.72
2022-10-09T22:18:18.840Z,59.71
2022-10-09T22:20:47.996Z,59.62
2022-10-09T22:23:15.128Z,59.99
2022-10-09T22:25:42.067Z,59.59
2022-10-09T22:28:09.044Z,59.96
2022-10-09T22:30:36.070Z,59.98
2022-10-09T22:33:03.078Z,59.36
2022-10-09T22:35:30.026Z,59.62
2022-10-09T22:37:57.576Z,59.79
2022-10-09T22:40:24.543Z,59.71
2022-10-09T22:42:51.614Z,59.55
2022-10-09T22:45:18.818Z,59.64
2022-10-09T22:47:48.022Z,59.94
2022-10-09T22:50:15.048Z,59.56
2022-10-09T22:52:41.962Z,59.96
2022-10-09T22:55:09.248Z,59.55
2022-10-09T22:57:36.200Z,59.81
2022-10-09T23:00:03.590Z,59.93
2022-10-09T23:02:30.484Z,59.64
2022-10-09T23:04:57.443Z,59.50
2022-10-09T23:07:24.833Z,59.75
2022-10-09T23:09:51.800Z,59.88
2022-10-09T23:12:18.701Z,59.89
2022-10-09T23:14:45.763Z,59.75
2022-10-09T23:17:12.662Z,59.58
2022-10-09T23:19:39.596Z,59.75
2022-10-09T23:22:06.493Z,59.89
2022-10-09T23:24:33.390Z,59.51
2022-10-09T23:27:00.312Z,60.12
2022-10-09T23:29:27.248Z,59.61
2022-10-09T23:31:54.238Z,59.92
2022-10-09T23:34:21.221Z,59.43
2022-10-09T23:36:48.119Z,59.51
2022-10-09T23:39:15.158Z,59.57
2022-10-09T23:41:42.145Z,59.42
2022-10-09T23:44:09.058Z,59.81
2022-10-09T23:46:37.869Z,59.78
2022-10-09T23:49:04.955Z,59.56
2022-10-09T23:51:31.974Z,59.55
2022-10-09T23:53:59.070Z,59.57
2022-10-09T23:56:31.317Z,59.60
2022-10-09T23:58:58.904Z,59.81
